^^
Station Historical Data
Daily Summary for January 20, 2017 Units:  English    Metric   Both
« Previous Day
Next Day »
Daily Weekly Monthly Yearly Custom
  High: Low: Average:
Temperature: 42.0 °F 36.5 °F 38.7 °F
Dew Point: 36.7 °F 31.2 °F 33.7 °F
Humidity: 95% 74% 82%
Wind Speed: 2.0mph 0.0mph 0mph
Wind Gust: 5.0mph - -
Wind- - SW
Pressure: 30.06 in 29.93 in -
Precipitation: 0.07 in    
Historical Graphs
 
 
Tabular Data for January 20, 2017
Time Temperature Dew Point Pressure Wind Wind Speed Wind Gust Humidity Rainfall Rate (Hourly) Conditions
00:00 39.2 °F 33.5 °F 30.03 in Calm   3.0 mph 80% 0.00 in BKN
00:10 39.0 °F 33.4 °F 30.04 in Calm   1.0 mph 80% 0.00 in BKN
00:20 39.0 °F 33.4 °F 30.04 in Calm   3.0 mph 80% 0.00 in BKN
00:30 39.0 °F 33.0 °F 30.05 in Calm   3.0 mph 79% 0.00 in BKN
00:40 39.0 °F 33.0 °F 30.05 in Calm   2.0 mph 79% 0.00 in BKN
00:50 38.9 °F 32.9 °F 30.06 in Calm   1.0 mph 79% 0.00 in BKN
01:00 38.9 °F 32.9 °F 30.06 in Calm   1.0 mph 79% 0.00 in BKN
01:10 38.7 °F 32.7 °F 30.06 in Calm     79% 0.00 in BKN
01:20 38.6 °F 32.9 °F 30.05 in Calm     80% 0.00 in BKN
01:30 38.4 °F 33.1 °F 30.05 in Calm     81% 0.00 in BKN
01:40 38.2 °F 32.9 °F 30.06 in Calm     81% 0.00 in BKN
01:50 38.1 °F 32.8 °F 30.06 in Calm     81% 0.00 in BKN
02:00 38.0 °F 32.7 °F 30.05 in Calm   1.0 mph 81% 0.00 in BKN
02:10 37.9 °F 32.6 °F 30.05 in Calm   2.0 mph 81% 0.00 in BKN
02:20 37.8 °F 32.5 °F 30.05 in Calm   2.0 mph 81% 0.00 in BKN
02:30 37.7 °F 32.4 °F 30.05 in Calm     81% 0.00 in BKN
02:40 37.6 °F 32.0 °F 30.05 in Calm     80% 0.00 in BKN
02:50 37.6 °F 32.0 °F 30.05 in Calm   1.0 mph 80% 0.00 in BKN
03:00 37.5 °F 31.9 °F 30.05 in Calm     80% 0.00 in BKN
03:10 37.5 °F 31.9 °F 30.05 in Calm     80% 0.00 in BKN
03:20 37.5 °F 32.2 °F 30.05 in Calm   1.0 mph 81% 0.00 in BKN
03:30 37.3 °F 32.0 °F 30.05 in Calm   1.0 mph 81% 0.00 in BKN
03:40 37.2 °F 31.9 °F 30.05 in Calm   1.0 mph 81% 0.00 in BKN
03:50 37.2 °F 31.6 °F 30.05 in Calm   3.0 mph 80% 0.00 in BKN
04:00 37.2 °F 31.6 °F 30.04 in Calm     80% 0.00 in BKN
04:10 37.1 °F 31.8 °F 30.04 in Calm   1.0 mph 81% 0.00 in BKN
04:20 37.1 °F 31.8 °F 30.04 in Calm   1.0 mph 81% 0.00 in BKN
04:30 37.0 °F 31.4 °F 30.04 in Calm   1.0 mph 80% 0.00 in BKN
04:40 36.9 °F 31.7 °F 30.04 in Calm   1.0 mph 81% 0.00 in BKN
04:50 36.9 °F 31.6 °F 30.04 in Calm   1.0 mph 81% 0.00 in BKN
05:00 36.8 °F 31.6 °F 30.03 in Calm     81% 0.00 in BKN
05:10 36.8 °F 31.5 °F 30.04 in Calm     81% 0.00 in BKN
05:20 36.7 °F 31.4 °F 30.03 in Calm     81% 0.00 in BKN
05:30 36.8 °F 31.8 °F 30.03 in Calm     82% 0.00 in BKN
05:40 36.8 °F 31.8 °F 30.03 in Calm     82% 0.00 in BKN
05:50 36.7 °F 31.7 °F 30.03 in Calm     82% 0.00 in BKN
06:00 36.6 °F 31.7 °F 30.02 in Calm     82% 0.00 in BKN
06:10 36.6 °F 31.6 °F 30.02 in Calm     82% 0.00 in BKN
06:20 36.6 °F 31.3 °F 30.02 in Calm   1.0 mph 81% 0.00 in BKN
06:30 36.6 °F 31.3 °F 30.02 in Calm   1.0 mph 81% 0.00 in BKN
06:40 36.6 °F 31.3 °F 30.02 in Calm   2.0 mph 81% 0.00 in BKN
06:50 36.5 °F 31.2 °F 30.02 in Calm     81% 0.00 in BKN
07:00 36.5 °F 31.5 °F 30.02 in Calm   1.0 mph 82% 0.00 in BKN
07:10 36.5 °F 31.5 °F 30.02 in Calm     82% 0.00 in BKN
07:20 36.5 °F 31.5 °F 30.03 in Calm     82% 0.00 in BKN
07:30 36.6 °F 31.6 °F 30.02 in Calm     82% 0.00 in BKN
07:40 36.7 °F 31.7 °F 30.02 in Calm   1.0 mph 82% 0.00 in BKN
07:50 36.9 °F 31.9 °F 30.03 in Calm     82% 0.00 in BKN
08:00 37.0 °F 32.0 °F 30.03 in Calm     82% 0.00 in BKN
08:10 37.2 °F 31.9 °F 30.03 in Calm     81% 0.00 in BKN
08:20 37.3 °F 32.0 °F 30.02 in Calm     81% 0.00 in BKN
08:30 37.4 °F 31.8 °F 30.02 in Calm     80% 0.00 in BKN
08:40 37.7 °F 32.1 °F 30.02 in Calm   1.0 mph 80% 0.00 in BKN
08:50 37.9 °F 32.3 °F 30.03 in Calm   1.0 mph 80% 0.00 in BKN
09:00 38.2 °F 32.3 °F 30.03 in Calm   1.0 mph 79% 0.00 in BKN
09:10 38.5 °F 32.6 °F 30.03 in Calm   1.0 mph 79% 0.00 in BKN
09:20 38.6 °F 32.6 °F 30.03 in Calm   1.0 mph 79% 0.00 in BKN
09:30 38.8 °F 32.5 °F 30.04 in WSW 2.0 mph 3.0 mph 78% 0.00 in BKN
09:40 38.9 °F 32.6 °F 30.03 in Calm   1.0 mph 78% 0.00 in BKN
09:50 39.3 °F 33.0 °F 30.03 in Calm     78% 0.00 in BKN
10:00 39.5 °F 32.9 °F 30.04 in NW 2.0 mph 4.0 mph 77% 0.00 in BKN
10:10 39.6 °F 33.3 °F 30.03 in Calm   5.0 mph 78% 0.00 in BKN
10:40 40.2 °F 33.2 °F 30.05 in Calm   3.0 mph 76% 0.00 in BKN
10:50 40.2 °F 33.2 °F 30.05 in SSW 1.0 mph 3.0 mph 76% 0.00 in BKN
11:00 40.1 °F 33.1 °F 30.04 in Calm   2.0 mph 76% 0.00 in BKN
11:10 39.9 °F 32.9 °F 30.04 in Calm   1.0 mph 76% 0.00 in BKN
11:20 40.2 °F 33.6 °F 30.03 in Calm   1.0 mph 77% 0.00 in BKN
11:30 40.4 °F 33.4 °F 30.02 in Calm   3.0 mph 76% 0.00 in BKN
11:50 40.8 °F 33.5 °F 30.01 in Calm   3.0 mph 75% 0.00 in BKN
12:00 40.8 °F 33.5 °F 30.00 in Calm   3.0 mph 75% 0.00 in BKN
12:10 41.1 °F 33.8 °F 29.99 in Calm   4.0 mph 75% 0.00 in OVC
12:20 41.2 °F 33.9 °F 29.99 in Calm   5.0 mph 75% 0.00 in OVC
12:30 41.3 °F 34.0 °F 29.99 in Calm   3.0 mph 75% 0.00 in OVC
12:40 41.6 °F 34.3 °F 29.99 in Calm   3.0 mph 75% 0.00 in OVC
12:50 42.0 °F 34.3 °F 29.98 in Calm   2.0 mph 74% 0.00 in OVC
13:00 41.9 °F 34.2 °F 29.98 in Calm   3.0 mph 74% 0.00 in OVC
13:10 41.9 °F 34.2 °F 29.98 in Calm   3.0 mph 74% 0.00 in OVC
13:20 41.8 °F 34.1 °F 29.97 in Calm   3.0 mph 74% 0.00 in OVC
13:30 41.6 °F 34.6 °F 29.97 in Calm   2.0 mph 76% 0.00 in OVC
13:40 41.6 °F 34.3 °F 29.96 in Calm   1.0 mph 75% 0.00 in OVC
13:50 41.6 °F 34.3 °F 29.95 in Calm   3.0 mph 75% 0.00 in OVC
14:00 41.7 °F 34.3 °F 29.95 in Calm   3.0 mph 75% 0.00 in OVC
14:10 41.5 °F 34.2 °F 29.95 in Calm   2.0 mph 75% 0.00 in BKN
14:20 41.5 °F 34.2 °F 29.95 in Calm   2.0 mph 75% 0.00 in BKN
14:30 41.6 °F 34.6 °F 29.95 in Calm   1.0 mph 76% 0.00 in BKN
14:40 41.6 °F 34.3 °F 29.95 in Calm   2.0 mph 75% 0.00 in BKN
14:50 41.6 °F 34.6 °F 29.95 in Calm   2.0 mph 76% 0.00 in BKN
15:00 41.7 °F 34.6 °F 29.95 in Calm   1.0 mph 76% 0.00 in BKN
15:10 41.6 °F 34.6 °F 29.95 in Calm   3.0 mph 76% 0.00 in BKN
15:20 41.5 °F 34.5 °F 29.94 in Calm   2.0 mph 76% 0.00 in BKN
15:30 41.5 °F 34.5 °F 29.95 in Calm   2.0 mph 76% 0.00 in BKN
15:40 41.3 °F 34.3 °F 29.95 in Calm   2.0 mph 76% 0.00 in BKN
15:50 41.2 °F 34.5 °F 29.95 in Calm   1.0 mph 77% 0.00 in BKN
16:00 41.1 °F 34.4 °F 29.95 in Calm   1.0 mph 77% 0.00 in BKN
16:10 40.9 °F 34.6 °F 29.95 in Calm   1.0 mph 78% 0.00 in BKN
16:20 40.8 °F 34.5 °F 29.95 in Calm   2.0 mph 78% 0.00 in BKN
16:30 40.7 °F 34.4 °F 29.95 in Calm   1.0 mph 78% 0.00 in BKN
16:40 40.5 °F 34.2 °F 29.95 in SE 1.0 mph 4.0 mph 78% 0.00 in BKN
16:50 40.3 °F 34.3 °F 29.95 in Calm   3.0 mph 79% 0.00 in BKN
17:00 40.2 °F 34.5 °F 29.95 in Calm   3.0 mph 80% 0.00 in BKN
17:10 40.0 °F 34.0 °F 29.94 in Calm   1.0 mph 79% 0.00 in OVC
17:20 39.8 °F 34.1 °F 29.95 in Calm   2.0 mph 80% 0.00 in OVC
17:30 39.6 °F 33.9 °F 29.95 in Calm   2.0 mph 80% 0.00 in OVC
17:40 39.3 °F 34.5 °F 29.95 in Calm   1.0 mph 83% 0.00 in OVC
17:50 38.8 °F 34.7 °F 29.95 in Calm   1.0 mph 85% 0.01 in RA
18:00 38.3 °F 34.5 °F 29.95 in Calm   1.0 mph 86% 0.00 in OVC
18:10 38.1 °F 34.9 °F 29.95 in Calm   1.0 mph 88% 0.00 in -DZ
18:20 37.9 °F 34.9 °F 29.95 in Calm   1.0 mph 89% 0.00 in -DZ
18:30 37.7 °F 34.8 °F 29.95 in Calm   1.0 mph 89% 0.00 in -DZ
18:40 37.7 °F 35.0 °F 29.95 in Calm   1.0 mph 90% 0.00 in -DZ
18:50 37.7 °F 35.0 °F 29.95 in Calm   2.0 mph 90% 0.00 in -DZ
19:00 37.7 °F 35.3 °F 29.95 in Calm   1.0 mph 91% 0.00 in -DZ
19:10 37.8 °F 35.4 °F 29.94 in Calm   2.0 mph 91% 0.00 in -DZ
19:20 37.9 °F 35.5 °F 29.94 in Calm   1.0 mph 91% 0.00 in -DZ
19:30 38.0 °F 35.6 °F 29.94 in Calm   1.0 mph 91% 0.00 in -DZ
19:40 38.1 °F 35.7 °F 29.94 in Calm   1.0 mph 91% 0.00 in -DZ
19:50 38.1 °F 36.0 °F 29.95 in Calm   1.0 mph 92% 0.00 in -DZ
20:00 38.2 °F 36.1 °F 29.95 in Calm   1.0 mph 92% 0.00 in -DZ
20:10 38.2 °F 36.1 °F 29.95 in Calm   2.0 mph 92% 0.00 in -DZ
20:20 38.2 °F 36.1 °F 29.95 in Calm   2.0 mph 92% 0.01 in -DZ
20:30 38.2 °F 36.1 °F 29.95 in Calm   2.0 mph 92% 0.00 in -DZ
20:40 38.2 °F 36.4 °F 29.95 in Calm   1.0 mph 93% 0.01 in -DZ
20:50 38.1 °F 36.3 °F 29.95 in Calm   2.0 mph 93% 0.00 in -DZ
21:00 38.0 °F 36.2 °F 29.95 in Calm   1.0 mph 93% 0.00 in -DZ
21:10 37.9 °F 36.1 °F 29.95 in Calm   1.0 mph 93% 0.00 in -RA
21:20 37.9 °F 36.1 °F 29.95 in Calm   1.0 mph 93% 0.01 in -RA
21:30 37.9 °F 36.3 °F 29.95 in Calm   1.0 mph 94% 0.00 in -RA
21:40 37.8 °F 36.2 °F 29.95 in Calm   1.0 mph 94% 0.00 in -RA
21:50 37.7 °F 36.1 °F 29.95 in Calm   1.0 mph 94% 0.00 in -RA
22:00 37.8 °F 36.2 °F 29.95 in Calm     94% 0.01 in -RA
22:10 37.7 °F 36.1 °F 29.95 in Calm     94% 0.00 in -RA
22:20 37.7 °F 36.2 °F 29.95 in Calm     94% 0.00 in -RA
22:30 37.7 °F 36.1 °F 29.95 in Calm     94% 0.01 in -RA
22:40 37.7 °F 36.4 °F 29.95 in Calm     95% 0.01 in -RA
22:50 37.8 °F 36.5 °F 29.94 in Calm     95% 0.00 in -RA
23:00 37.7 °F 36.4 °F 29.94 in Calm     95% 0.00 in -RA
23:10 37.7 °F 36.4 °F 29.94 in Calm     95% 0.00 in -RA
23:20 37.8 °F 36.5 °F 29.93 in Calm     95% 0.00 in -RA
23:30 37.9 °F 36.6 °F 29.93 in Calm     95% 0.00 in -RA
23:40 37.9 °F 36.6 °F 29.93 in Calm     95% 0.00 in -RA
23:50 38.0 °F 36.7 °F 29.93 in Calm   1.0 mph 95% 0.00 in -RA
TarryTown NY Weather
Compliments of Weather Underground - 1.75 mb